createdAt,value
2018-11-29T00:02:12.780Z,28.10
2018-11-29T00:04:40.357Z,28.20
2018-11-29T00:07:07.950Z,28.10
2018-11-29T00:09:38.655Z,28.10
2018-11-29T00:12:06.709Z,28.10
2018-11-29T00:14:34.647Z,28.10
2018-11-29T00:17:02.285Z,28.10
2018-11-29T00:19:29.872Z,28.10
2018-11-29T00:21:57.601Z,28.10
2018-11-29T00:24:25.223Z,28.10
2018-11-29T00:26:52.800Z,28.10
2018-11-29T00:29:20.472Z,28.10
2018-11-29T00:31:48.050Z,28.10
2018-11-29T00:34:15.698Z,28.10
2018-11-29T00:36:43.274Z,28.10
2018-11-29T00:39:10.848Z,28.60
2018-11-29T00:41:38.546Z,28.10
2018-11-29T00:44:06.877Z,28.10
2018-11-29T00:46:35.697Z,28.10
2018-11-29T00:49:07.262Z,28.10
2018-11-29T00:51:35.780Z,28.10
2018-11-29T00:54:03.396Z,28.10
2018-11-29T00:56:31.035Z,28.10
2018-11-29T00:58:58.638Z,28.10
2018-11-29T01:01:26.296Z,28.10
2018-11-29T01:03:53.941Z,28.10
2018-11-29T01:06:21.536Z,28.60
2018-11-29T01:08:49.110Z,28.10
2018-11-29T01:11:16.755Z,28.10
2018-11-29T01:13:44.344Z,28.10
2018-11-29T01:16:11.893Z,28.10
2018-11-29T01:18:39.528Z,28.10
2018-11-29T01:21:07.113Z,28.10
2018-11-29T01:23:34.710Z,28.10
2018-11-29T01:26:02.337Z,28.10
2018-11-29T01:28:29.883Z,28.10
2018-11-29T01:30:57.584Z,28.10
2018-11-29T01:33:25.512Z,28.10
2018-11-29T01:35:53.192Z,28.10
2018-11-29T01:38:20.868Z,28.00
2018-11-29T01:40:48.436Z,28.10
2018-11-29T01:43:16.002Z,28.10
2018-11-29T01:45:43.817Z,28.10
2018-11-29T01:48:11.429Z,28.00
2018-11-29T01:50:38.985Z,28.00
2018-11-29T01:53:06.673Z,28.10
2018-11-29T01:55:34.285Z,28.10
2018-11-29T01:58:02.011Z,28.00
2018-11-29T02:00:29.627Z,28.10
2018-11-29T02:02:57.331Z,28.10
2018-11-29T02:05:24.929Z,28.10
2018-11-29T02:07:52.569Z,28.10
2018-11-29T02:10:27.654Z,28.00
2018-11-29T02:12:55.635Z,28.10
2018-11-29T02:15:23.279Z,28.10
2018-11-29T02:17:50.869Z,28.00
2018-11-29T02:20:18.893Z,28.00
2018-11-29T02:22:46.668Z,28.00
2018-11-29T02:25:15.233Z,28.10
2018-11-29T02:27:43.601Z,28.00
2018-11-29T02:30:14.287Z,28.10
2018-11-29T02:32:42.793Z,28.10
2018-11-29T02:35:11.235Z,28.00
2018-11-29T02:37:39.551Z,28.00
2018-11-29T02:40:10.849Z,28.00
2018-11-29T02:42:39.351Z,28.00
2018-11-29T02:45:11.023Z,28.00
2018-11-29T02:47:39.423Z,28.00
2018-11-29T02:50:07.613Z,28.10
2018-11-29T02:52:35.181Z,28.00
2018-11-29T02:55:02.818Z,28.00
2018-11-29T02:57:30.372Z,28.00
2018-11-29T02:59:58.033Z,28.00
2018-11-29T03:02:25.667Z,28.00
2018-11-29T03:04:53.366Z,28.00
2018-11-29T03:07:21.013Z,28.00
2018-11-29T03:09:48.702Z,28.00
2018-11-29T03:12:16.341Z,28.00
2018-11-29T03:14:43.970Z,28.00
2018-11-29T03:17:11.721Z,28.00
2018-11-29T03:19:39.314Z,28.00
2018-11-29T03:22:06.960Z,28.40
2018-11-29T03:24:34.534Z,28.00
2018-11-29T03:29:36.256Z,28.00
2018-11-29T03:32:03.868Z,28.00
2018-11-29T03:34:31.499Z,28.00
2018-11-29T03:36:59.151Z,28.00
2018-11-29T03:39:26.780Z,28.00
2018-11-29T03:41:55.388Z,28.00
2018-11-29T03:44:23.001Z,28.00
2018-11-29T03:46:50.642Z,28.00
2018-11-29T03:49:18.238Z,28.00
2018-11-29T03:51:45.834Z,28.00
2018-11-29T03:54:13.442Z,28.00
2018-11-29T03:56:41.030Z,28.00
2018-11-29T03:59:08.678Z,28.00
2018-11-29T04:01:36.224Z,28.00
2018-11-29T04:04:03.846Z,28.00
2018-11-29T04:06:31.531Z,28.00
2018-11-29T04:08:59.288Z,28.00
2018-11-29T04:11:27.033Z,28.00
2018-11-29T04:13:54.668Z,28.00
2018-11-29T04:16:22.320Z,28.00
2018-11-29T04:18:49.946Z,28.00
2018-11-29T04:21:17.740Z,28.00
2018-11-29T04:23:45.330Z,28.00
2018-11-29T04:26:12.922Z,28.00
2018-11-29T04:28:40.517Z,28.00
2018-11-29T04:31:08.045Z,27.90
2018-11-29T04:33:35.854Z,28.00
2018-11-29T04:36:03.455Z,28.00
2018-11-29T04:38:31.052Z,28.00
2018-11-29T04:40:58.936Z,28.00
2018-11-29T04:43:26.508Z,28.00
2018-11-29T04:45:59.962Z,28.00
2018-11-29T04:48:27.582Z,28.00
2018-11-29T04:50:55.251Z,28.00
2018-11-29T04:53:22.820Z,28.00
2018-11-29T04:55:50.459Z,28.00
2018-11-29T04:58:18.079Z,28.30
2018-11-29T05:00:45.799Z,28.00
2018-11-29T05:03:13.383Z,28.00
2018-11-29T05:05:41.036Z,28.00
2018-11-29T05:08:08.632Z,28.00
2018-11-29T05:10:36.218Z,28.00
2018-11-29T05:13:03.866Z,28.00
2018-11-29T05:15:31.468Z,28.00
2018-11-29T05:17:59.080Z,28.00
2018-11-29T05:20:26.808Z,28.00
2018-11-29T05:22:54.340Z,27.90
2018-11-29T05:25:21.936Z,28.00
2018-11-29T05:27:49.700Z,27.90
2018-11-29T05:30:17.260Z,27.90
2018-11-29T05:32:44.865Z,27.90
2018-11-29T05:35:12.641Z,27.90
2018-11-29T05:37:40.370Z,28.00
2018-11-29T05:40:09.020Z,27.90
2018-11-29T05:42:36.704Z,27.90
2018-11-29T05:45:04.694Z,27.90
2018-11-29T05:47:32.386Z,27.90
2018-11-29T05:50:00.035Z,27.90
2018-11-29T05:52:27.622Z,27.90
2018-11-29T05:54:55.268Z,27.90
2018-11-29T05:57:22.905Z,27.90
2018-11-29T05:59:50.517Z,27.90
2018-11-29T06:02:18.142Z,27.90
2018-11-29T06:04:45.900Z,27.90
2018-11-29T06:07:13.538Z,27.90
2018-11-29T06:09:41.214Z,28.00
2018-11-29T06:12:08.894Z,28.00
2018-11-29T06:14:36.534Z,28.00
2018-11-29T06:17:04.130Z,28.00
2018-11-29T06:19:31.789Z,28.00
2018-11-29T06:21:59.476Z,28.00
2018-11-29T06:24:27.032Z,28.10
2018-11-29T06:26:54.751Z,28.10
2018-11-29T06:29:22.347Z,28.10
2018-11-29T06:31:49.966Z,28.10
2018-11-29T06:34:17.569Z,27.60
2018-11-29T06:36:45.235Z,28.10
2018-11-29T06:39:12.829Z,28.60
2018-11-29T06:41:40.493Z,28.10
2018-11-29T06:44:08.052Z,28.20
2018-11-29T06:46:35.780Z,28.20
2018-11-29T06:49:03.403Z,28.20
2018-11-29T06:51:31.056Z,28.30
2018-11-29T06:53:59.416Z,28.20
2018-11-29T06:56:27.207Z,28.20
2018-11-29T06:58:55.029Z,28.20
2018-11-29T07:01:22.639Z,28.20
2018-11-29T07:03:50.425Z,28.20
2018-11-29T07:06:17.999Z,28.20
2018-11-29T07:08:45.651Z,28.20
2018-11-29T07:11:13.203Z,28.40
2018-11-29T07:13:40.784Z,28.40
2018-11-29T07:16:08.596Z,28.20
2018-11-29T07:18:36.338Z,28.20
2018-11-29T07:21:09.559Z,27.80
2018-11-29T07:23:37.200Z,27.40
2018-11-29T07:26:05.391Z,26.70
2018-11-29T07:28:33.024Z,26.40
2018-11-29T07:31:00.777Z,25.80
2018-11-29T07:33:28.441Z,25.40
2018-11-29T07:35:56.005Z,24.80
2018-11-29T07:38:23.543Z,24.80
2018-11-29T07:40:51.325Z,24.60
2018-11-29T07:43:19.663Z,24.20
2018-11-29T07:45:47.244Z,23.40
2018-11-29T07:48:14.891Z,24.00
2018-11-29T07:50:42.583Z,23.20
2018-11-29T07:53:10.979Z,23.20
2018-11-29T07:55:38.702Z,23.20
2018-11-29T07:58:06.637Z,23.30
2018-11-29T08:00:34.263Z,24.10
2018-11-29T08:03:02.046Z,24.20
2018-11-29T08:05:29.615Z,24.70
2018-11-29T08:07:57.272Z,24.90
2018-11-29T08:10:25.056Z,25.10
2018-11-29T08:12:52.619Z,25.50
2018-11-29T08:15:20.914Z,25.60
2018-11-29T08:17:48.569Z,25.20
2018-11-29T08:20:17.676Z,25.70
2018-11-29T08:22:45.357Z,25.40
2018-11-29T08:25:13.011Z,25.70
2018-11-29T08:27:40.621Z,25.90
2018-11-29T08:30:09.023Z,26.10
2018-11-29T08:32:36.898Z,26.30
2018-11-29T08:35:04.527Z,26.30
2018-11-29T08:37:32.279Z,26.30
2018-11-29T08:40:00.586Z,26.40
2018-11-29T08:42:28.921Z,26.00
2018-11-29T08:44:56.553Z,26.30
2018-11-29T08:47:24.342Z,26.30
2018-11-29T08:49:52.043Z,27.00
2018-11-29T08:52:19.697Z,26.50
2018-11-29T08:54:47.337Z,26.60
2018-11-29T08:57:15.649Z,26.70
2018-11-29T08:59:42.535Z,26.60
2018-11-29T09:02:10.221Z,26.60
2018-11-29T09:04:37.841Z,26.40
2018-11-29T09:07:05.681Z,26.40
2018-11-29T09:09:33.369Z,26.40
2018-11-29T09:12:01.086Z,26.30
2018-11-29T09:14:28.667Z,26.30
2018-11-29T09:16:56.499Z,26.30
2018-11-29T09:19:24.149Z,26.30
2018-11-29T09:21:51.743Z,26.30
2018-11-29T09:24:19.390Z,26.30
2018-11-29T09:26:46.957Z,26.30
2018-11-29T09:29:14.619Z,26.30
2018-11-29T09:31:42.257Z,26.30
2018-11-29T09:34:10.027Z,26.30
2018-11-29T09:36:37.721Z,26.30
2018-11-29T09:39:07.053Z,26.40
2018-11-29T09:41:34.807Z,26.40
2018-11-29T09:44:02.434Z,26.30
2018-11-29T09:46:30.086Z,26.20
2018-11-29T09:48:57.800Z,26.30
2018-11-29T09:51:25.428Z,26.20
2018-11-29T09:53:53.086Z,26.30
2018-11-29T09:56:20.685Z,26.30
2018-11-29T09:58:48.327Z,26.30
2018-11-29T10:01:15.978Z,26.50
2018-11-29T10:03:43.737Z,26.60
2018-11-29T10:06:11.470Z,26.60
2018-11-29T10:08:39.134Z,26.70
2018-11-29T10:11:06.752Z,26.80
2018-11-29T10:13:34.412Z,26.80
2018-11-29T10:16:02.018Z,26.70
2018-11-29T10:18:29.643Z,26.80
2018-11-29T10:20:57.265Z,26.80
2018-11-29T10:23:24.834Z,26.80
2018-11-29T10:25:52.414Z,26.90
2018-11-29T10:28:20.115Z,26.90
2018-11-29T10:30:51.562Z,26.70
2018-11-29T10:33:19.301Z,26.90
2018-11-29T10:35:46.894Z,27.10
2018-11-29T10:38:14.666Z,27.00
2018-11-29T10:40:42.557Z,26.90
2018-11-29T10:43:10.224Z,27.60
2018-11-29T10:45:37.859Z,27.60
2018-11-29T10:48:06.955Z,28.10
2018-11-29T10:50:34.594Z,28.10
2018-11-29T10:53:02.190Z,28.10
2018-11-29T10:55:29.880Z,28.10
2018-11-29T10:57:57.493Z,28.10
2018-11-29T11:00:30.859Z,28.10
2018-11-29T11:03:04.360Z,28.00
2018-11-29T11:05:32.064Z,28.00
2018-11-29T11:07:59.704Z,28.00
2018-11-29T11:10:27.468Z,28.00
2018-11-29T11:12:55.118Z,28.00
2018-11-29T11:15:22.774Z,28.00
2018-11-29T11:17:50.463Z,28.00
2018-11-29T11:20:18.210Z,28.00
2018-11-29T11:22:46.122Z,28.00
2018-11-29T11:25:13.699Z,28.00
2018-11-29T11:27:41.327Z,28.00
2018-11-29T11:30:17.258Z,28.00
2018-11-29T11:32:45.440Z,28.00
2018-11-29T11:35:13.337Z,28.00
2018-11-29T11:37:41.053Z,28.00
2018-11-29T11:40:12.214Z,28.00
2018-11-29T11:42:39.845Z,28.10
2018-11-29T11:45:09.432Z,28.10
2018-11-29T11:47:37.106Z,28.10
2018-11-29T11:50:10.756Z,28.10
2018-11-29T11:52:34.411Z,28.10
2018-11-29T11:55:01.989Z,28.10
2018-11-29T11:57:29.645Z,28.10
2018-11-29T11:59:57.249Z,28.10
2018-11-29T12:02:27.358Z,28.10
2018-11-29T12:04:52.677Z,28.10
2018-11-29T12:07:20.485Z,28.10
2018-11-29T12:09:48.077Z,28.10
2018-11-29T12:12:15.715Z,28.10
2018-11-29T12:14:43.316Z,28.10
2018-11-29T12:17:10.903Z,28.20
2018-11-29T12:19:38.897Z,28.20
2018-11-29T12:22:06.517Z,28.20
2018-11-29T12:24:34.753Z,28.20
2018-11-29T12:27:02.483Z,28.30
2018-11-29T12:29:30.053Z,28.20
2018-11-29T12:31:57.684Z,28.20
2018-11-29T12:34:25.314Z,27.70
2018-11-29T12:36:52.890Z,27.60
2018-11-29T12:39:20.468Z,27.40
2018-11-29T12:41:48.116Z,27.70
2018-11-29T12:44:15.725Z,27.10
2018-11-29T12:46:43.377Z,26.90
2018-11-29T12:49:11.041Z,26.90
2018-11-29T12:51:38.738Z,26.80
2018-11-29T12:54:06.472Z,26.70
2018-11-29T12:56:34.081Z,26.60
2018-11-29T12:59:01.732Z,26.60
2018-11-29T13:01:30.159Z,26.60
2018-11-29T13:03:59.631Z,26.40
2018-11-29T13:06:27.299Z,26.50
2018-11-29T13:09:01.751Z,26.50
2018-11-29T13:11:29.756Z,26.40
2018-11-29T13:13:57.404Z,26.20
2018-11-29T13:16:25.161Z,26.20
2018-11-29T13:18:52.796Z,26.10
2018-11-29T13:21:20.423Z,26.00
2018-11-29T13:23:48.000Z,25.90
2018-11-29T13:26:15.921Z,25.90
2018-11-29T13:28:44.272Z,25.30
2018-11-29T13:31:12.629Z,25.80
2018-11-29T13:33:40.323Z,25.80
2018-11-29T13:36:07.909Z,25.80
2018-11-29T13:38:35.565Z,25.70
2018-11-29T13:41:03.415Z,25.70
2018-11-29T13:43:31.020Z,25.70
2018-11-29T13:45:58.737Z,25.60
2018-11-29T13:48:26.343Z,25.30
2018-11-29T13:50:53.962Z,28.20
2018-11-29T13:53:26.343Z,28.20
2018-11-29T13:55:54.057Z,28.20
2018-11-29T13:58:21.728Z,28.30
2018-11-29T14:00:49.343Z,28.30
2018-11-29T14:03:17.853Z,28.30
2018-11-29T14:05:46.317Z,28.30
2018-11-29T14:08:14.051Z,28.20
2018-11-29T14:10:41.979Z,28.30
2018-11-29T14:13:09.540Z,28.30
2018-11-29T14:15:37.421Z,28.20
2018-11-29T14:18:05.044Z,28.20
2018-11-29T14:20:35.466Z,28.20
2018-11-29T14:23:00.566Z,28.20
2018-11-29T14:25:28.179Z,28.30
2018-11-29T14:27:56.523Z,28.20
2018-11-29T14:30:25.606Z,28.20
2018-11-29T14:32:53.735Z,28.20
2018-11-29T14:35:21.644Z,28.20
2018-11-29T14:37:49.239Z,28.20
2018-11-29T14:40:17.463Z,28.20
2018-11-29T14:42:45.814Z,28.20
2018-11-29T14:45:29.962Z,28.20
2018-11-29T14:47:57.609Z,28.20
2018-11-29T14:50:25.931Z,28.20
2018-11-29T14:52:53.561Z,28.20
2018-11-29T14:55:21.859Z,28.20
2018-11-29T14:57:48.867Z,28.70
2018-11-29T15:00:16.619Z,28.20
2018-11-29T15:02:44.206Z,28.20
2018-11-29T15:05:12.847Z,28.20
2018-11-29T15:07:40.442Z,28.10
2018-11-29T15:10:08.802Z,27.70
2018-11-29T15:12:36.494Z,28.20
2018-11-29T15:15:04.315Z,28.20
2018-11-29T15:17:31.941Z,28.10
2018-11-29T15:19:59.511Z,28.20
2018-11-29T15:22:27.112Z,28.20
2018-11-29T15:24:54.727Z,28.20
2018-11-29T15:27:22.558Z,28.20
2018-11-29T15:29:50.173Z,28.20
2018-11-29T15:32:17.884Z,28.10
2018-11-29T15:34:45.516Z,28.10
2018-11-29T15:37:13.078Z,28.20
2018-11-29T15:42:14.902Z,28.10
2018-11-29T15:44:42.550Z,28.10
2018-11-29T15:47:10.231Z,28.10
2018-11-29T15:49:37.897Z,28.10
2018-11-29T15:52:05.520Z,28.20
2018-11-29T15:54:33.666Z,28.20
2018-11-29T15:57:01.362Z,28.20
2018-11-29T15:59:28.952Z,28.20
2018-11-29T16:01:56.542Z,28.20
2018-11-29T16:04:24.210Z,28.20
2018-11-29T16:06:52.060Z,27.70
2018-11-29T16:09:19.862Z,28.20
2018-11-29T16:11:47.489Z,28.20
2018-11-29T16:14:15.147Z,28.20
2018-11-29T16:16:42.934Z,28.20
2018-11-29T16:19:10.506Z,28.20
2018-11-29T16:21:38.168Z,28.20
2018-11-29T16:24:05.796Z,28.20
2018-11-29T16:26:33.367Z,28.20
2018-11-29T16:29:01.038Z,28.20
2018-11-29T16:31:28.689Z,28.00
2018-11-29T16:33:56.279Z,28.20
2018-11-29T16:36:23.898Z,28.40
2018-11-29T16:38:51.499Z,28.40
2018-11-29T16:41:19.068Z,28.40
2018-11-29T16:43:46.692Z,28.40
2018-11-29T16:46:14.344Z,28.90
2018-11-29T16:48:42.078Z,31.90
2018-11-29T16:51:09.720Z,33.00
2018-11-29T16:53:37.314Z,33.50
2018-11-29T16:56:05.372Z,32.10
2018-11-29T16:58:33.006Z,33.80
2018-11-29T17:01:00.655Z,34.00
2018-11-29T17:03:28.234Z,34.50
2018-11-29T17:05:55.780Z,35.70
2018-11-29T17:08:23.474Z,36.10
2018-11-29T17:10:51.044Z,34.00
2018-11-29T17:13:18.872Z,32.20
2018-11-29T17:15:46.539Z,31.00
2018-11-29T17:18:14.132Z,29.70
2018-11-29T17:20:41.708Z,28.50
2018-11-29T17:23:09.910Z,29.00
2018-11-29T17:25:37.592Z,28.50
2018-11-29T17:28:05.724Z,28.50
2018-11-29T17:30:33.400Z,29.00
2018-11-29T17:33:01.063Z,27.20
2018-11-29T17:35:28.885Z,26.80
2018-11-29T17:37:57.148Z,26.10
2018-11-29T17:40:24.728Z,25.80
2018-11-29T17:42:57.035Z,25.20
2018-11-29T17:45:32.818Z,24.50
2018-11-29T17:48:01.606Z,25.40
2018-11-29T17:50:32.177Z,25.00
2018-11-29T17:52:59.867Z,25.00
2018-11-29T17:55:31.110Z,25.00
2018-11-29T17:57:58.950Z,23.70
2018-11-29T18:00:31.674Z,24.50
2018-11-29T18:02:59.353Z,24.20
2018-11-29T18:05:27.010Z,23.70
2018-11-29T18:07:54.582Z,23.90
2018-11-29T18:10:22.841Z,23.70
2018-11-29T18:12:52.202Z,23.10
2018-11-29T18:15:23.522Z,23.70
2018-11-29T18:17:51.230Z,23.70
2018-11-29T18:20:18.888Z,23.70
2018-11-29T18:22:47.346Z,23.70
2018-11-29T18:25:15.488Z,23.70
2018-11-29T18:27:50.517Z,23.70
2018-11-29T18:30:18.770Z,23.70
2018-11-29T18:32:46.374Z,23.70
2018-11-29T18:35:14.221Z,23.70
2018-11-29T18:37:42.039Z,24.30
2018-11-29T18:40:17.886Z,23.90
2018-11-29T18:42:46.713Z,24.30
2018-11-29T18:45:14.593Z,24.40
2018-11-29T18:47:42.621Z,24.50
2018-11-29T18:50:12.098Z,24.60
2018-11-29T18:52:39.744Z,24.70
2018-11-29T18:55:07.546Z,24.80
2018-11-29T18:57:35.311Z,25.20
2018-11-29T19:00:02.932Z,25.10
2018-11-29T19:02:30.502Z,24.50
2018-11-29T19:04:58.132Z,24.60
2018-11-29T19:07:25.913Z,24.70
2018-11-29T19:09:53.561Z,24.80
2018-11-29T19:12:21.213Z,24.90
2018-11-29T19:14:48.932Z,25.00
2018-11-29T19:17:16.546Z,24.90
2018-11-29T19:19:44.940Z,25.20
2018-11-29T19:22:13.732Z,25.20
2018-11-29T19:24:41.598Z,25.30
2018-11-29T19:27:09.301Z,25.30
2018-11-29T19:29:37.066Z,25.40
2018-11-29T19:32:04.826Z,25.50
2018-11-29T19:34:32.427Z,25.70
2018-11-29T19:37:00.244Z,25.70
2018-11-29T19:39:27.864Z,25.90
2018-11-29T19:41:55.534Z,25.80
2018-11-29T19:44:23.179Z,25.80
2018-11-29T19:46:50.765Z,25.90
2018-11-29T19:49:18.373Z,25.90
2018-11-29T19:51:46.251Z,25.80
2018-11-29T19:54:13.938Z,25.90
2018-11-29T19:56:41.589Z,26.00
2018-11-29T19:59:09.262Z,26.00
2018-11-29T20:01:36.869Z,26.00
2018-11-29T20:04:04.833Z,26.20
2018-11-29T20:06:32.428Z,26.10
2018-11-29T20:09:00.059Z,26.30
2018-11-29T20:11:28.476Z,26.30
2018-11-29T20:13:56.090Z,26.40
2018-11-29T20:16:24.297Z,26.40
2018-11-29T20:18:52.123Z,26.50
2018-11-29T20:21:19.870Z,26.50
2018-11-29T20:23:47.545Z,26.60
2018-11-29T20:26:15.365Z,26.60
2018-11-29T20:28:42.962Z,26.60
2018-11-29T20:31:10.578Z,26.60
2018-11-29T20:33:38.479Z,26.80
2018-11-29T20:36:06.063Z,26.80
2018-11-29T20:38:33.686Z,26.60
2018-11-29T20:41:01.279Z,27.20
2018-11-29T20:43:28.946Z,26.80
2018-11-29T20:45:56.748Z,27.00
2018-11-29T20:48:26.173Z,27.00
2018-11-29T20:50:54.396Z,27.00
2018-11-29T20:53:23.607Z,27.00
2018-11-29T20:55:52.052Z,27.00
2018-11-29T20:58:19.682Z,27.20
2018-11-29T21:00:47.479Z,27.20
2018-11-29T21:03:15.082Z,27.10
2018-11-29T21:05:43.409Z,27.20
2018-11-29T21:08:11.814Z,27.10
2018-11-29T21:10:39.372Z,27.20
2018-11-29T21:13:07.891Z,27.40
2018-11-29T21:15:40.323Z,27.60
2018-11-29T21:18:09.458Z,27.50
2018-11-29T21:20:37.290Z,27.80
2018-11-29T21:23:05.692Z,27.60
2018-11-29T21:25:33.344Z,27.70
2018-11-29T21:28:01.007Z,27.80
2018-11-29T21:30:28.727Z,28.30
2018-11-29T21:32:56.468Z,28.10
2018-11-29T21:35:24.711Z,28.10
2018-11-29T21:37:53.523Z,28.10
2018-11-29T21:40:26.682Z,28.10
2018-11-29T21:42:54.696Z,28.00
2018-11-29T21:45:23.588Z,27.90
2018-11-29T21:47:51.228Z,28.10
2018-11-29T21:50:19.024Z,27.70
2018-11-29T21:52:46.581Z,27.50
2018-11-29T21:55:14.948Z,27.50
2018-11-29T21:57:42.916Z,27.60
2018-11-29T22:00:16.466Z,27.30
2018-11-29T22:02:46.110Z,27.20
2018-11-29T22:05:15.082Z,27.30
2018-11-29T22:07:42.970Z,27.30
2018-11-29T22:10:11.038Z,28.10
2018-11-29T22:12:39.130Z,27.80
2018-11-29T22:15:08.806Z,27.40
2018-11-29T22:18:42.437Z,27.30
2018-11-29T22:21:10.502Z,28.00
2018-11-29T22:23:39.393Z,28.00
2018-11-29T22:26:08.464Z,28.10
2018-11-29T22:28:36.451Z,28.10
2018-11-29T22:31:04.417Z,28.10
2018-11-29T22:33:32.388Z,28.00
2018-11-29T22:36:00.877Z,28.10
2018-11-29T22:38:28.942Z,28.10
2018-11-29T22:40:56.608Z,28.10
2018-11-29T22:43:24.251Z,28.10
2018-11-29T22:45:51.794Z,28.10
2018-11-29T22:48:19.441Z,28.10
2018-11-29T22:50:47.015Z,28.10
2018-11-29T22:53:14.565Z,28.10
2018-11-29T22:55:42.193Z,28.00
2018-11-29T22:58:09.777Z,28.60
2018-11-29T23:00:43.004Z,28.10
2018-11-29T23:03:11.289Z,28.10
2018-11-29T23:05:38.879Z,28.10
2018-11-29T23:08:06.615Z,28.10
2018-11-29T23:10:34.226Z,28.10
2018-11-29T23:13:01.855Z,28.10
2018-11-29T23:15:29.441Z,28.10
2018-11-29T23:17:57.105Z,28.10
2018-11-29T23:20:24.685Z,28.10
2018-11-29T23:22:52.309Z,28.10
2018-11-29T23:25:20.000Z,28.50
2018-11-29T23:27:47.570Z,28.10
2018-11-29T23:30:15.682Z,28.10
2018-11-29T23:32:43.571Z,28.10
2018-11-29T23:35:11.736Z,28.10
2018-11-29T23:37:39.325Z,28.10
2018-11-29T23:40:09.751Z,28.10
2018-11-29T23:42:37.393Z,28.10
2018-11-29T23:45:05.749Z,28.10
2018-11-29T23:47:33.397Z,28.30
2018-11-29T23:50:00.947Z,28.10
2018-11-29T23:52:28.525Z,28.10
2018-11-29T23:54:56.233Z,28.10
2018-11-29T23:57:24.015Z,28.10
2018-11-29T23:59:51.665Z,28.10
